Poskin, Wisconsin
Current Conditions -  °F | °C
As of 8:35 AM on Sunday 23 Nov 2014 (Local Time) from KRPD Reporting Station
Moderate Fog Moderate Fog  
Wind Chill: 38°   Ceiling: 300
Heat Index: 42°   Visibility: 0mi
Dew Point: 41°   Wind: 6mph
Humidity: 97%   Direction: 150°SSE
Pressure: 29.5"   Gusts: NA
Location:  45.3978°N, 91.8834°W
Report Text: KRPD 231435Z AUTO 15005KT M1/4SM FG OVC003 05/05 A2950 RMK AO2 T00540050
Loading
Personal Weather Stations






























Interactive Weather Map New forecast layout! Learn more

10-Day Weather Forecast

Advertisements
Track Severe Weather on mobile